Weather at Taggarts Airstrip

Public forecast

Using degrees Celsius for public forecast. Weather courtesy of forecast.io.

Closest aviation weather report (METAR) to Taggarts Airstrip

Closest report is Casement Air Base, 23.1 nm (42.8 km) ESE.

2024/07/22 11:00 (retrieved 38 minutes ago)

EIME 221100Z 26012KT 9999 FEW015 BKN027 17/14 Q1011

Closest aviation forecast (TAF) to Taggarts Airstrip

Closest forecast is Dublin Airport, 28.1 nm (52.1 km) E.

2024/07/22 06:15 (retrieved 5 hours ago)

TAF EIDW 220500Z 2206/2306 25010KT 6000 -DZ SCT008 BKN015 TEMPO 2206/2211 4000 -RADZ BKN008 PROB30 TEMPO 2206/2210 2500 BR BKN004 BECMG 2216/2218 VRB03KT TEMPO 2218/2223 3000 RA BKN006 FEW018CB BECMG 2221/2223 33008KT TEMPO 2223/2303 3000 -RA BKN006 PROB30 TEMPO 2223/2303 2000 -RADZ BR BKN004